Port Loring, Canada
Current Conditions -  °F | °C
As of 5:00 PM on Thursday 23 Oct 2014 (Local Time) from CYYB Reporting Station
Clear Clear  
Wind Chill: 54°   Ceiling: Unl
Heat Index: 54°   Visibility: 15mi
Dew Point: 39°   Wind: 7mph
Humidity: 58%   Direction: 220°SW
Pressure: 30.08"   Gusts: NA
Location:  45.92°N, 79.98°W
Report Text: CYYB 232100Z 22006KT 15SM SKC 12/04 A3008 RMK SLP199
Loading
Personal Weather Stations






























Interactive Weather Map
Tropical Storm Tracking
New forecast layout! Learn more

10-Day Weather Forecast

Advertisements
Track Severe Weather on mobile